Bermuda Spirit — C6XT2 — position and weather

sailwx.info

Track history (hours):
 
Tides and Currents Weather Stations Pressure Air Temp Water Temp Dewpoint Dewpoint Depression Visibility Wind Speed Wind Dir Waves Ship Positions

Bermuda Spirit

Last reported at 2015-Mar-30 12:33 UTC. Time now 2015-Mar-31 03:19 UTC.
Position N 41°34' E 029°35'.

Length 274 m; draft 9 m.

Type: Tanker. MMSI: 311020900.

Date/timePositionNaut miles runAvg speedWind from/ knotsBaromVisibWave heightAir tempDewpointWater temp
2015-Mar-30 12:33N 41°34' E 029°35'9 9.4
2015-Mar-30 11:33N 41°27' E 029°26'9 9.4
2015-Mar-30 10:34N 41°21' E 029°17'1610.5
2015-Mar-30 09:04N 41°09' E 029°03'1010.5
2015-Mar-30 08:09N 40°60' E 028°60'610.3
2015-Mar-30 07:33N 40°54' E 028°56'1312.6
2015-Mar-30 06:31N 40°47' E 028°42'7 6.6
2015-Mar-30 05:28N 40°40' E 028°41'0 0.4
2015-Mar-30 04:16N 40°40' E 028°41'2 0.4
2015-Mar-30 00:16N 40°42' E 028°40'1 0.5
2015-Mar-29 22:28N 40°42' E 028°39'0 0.2
2015-Mar-29 21:16N 40°43' E 028°39'0 0.2
2015-Mar-29 19:32N 40°43' E 028°39'6 6.4
2015-Mar-29 18:33N 40°37' E 028°40'1 0.4
2015-Mar-29 17:03N 40°37' E 028°40'2 1.0
2015-Mar-29 15:15N 40°39' E 028°41'1 0.9
2015-Mar-29 14:21N 40°40' E 028°41'1 0.7
2015-Mar-29 13:33N 40°40' E 028°41'1 0.8
2015-Mar-29 12:27N 40°41' E 028°41'2 1.2
2015-Mar-29 11:09N 40°43' E 028°41'3 4.8
2015-Mar-29 10:31N 40°41' E 028°37'3 1.5
2015-Mar-29 08:20N 40°39' E 028°35'1 0.9
2015-Mar-29 07:20N 40°39' E 028°35'1 0.8
2015-Mar-29 06:32N 40°40' E 028°36'1 0.7
2015-Mar-29 05:32N 40°40' E 028°36'0 0.3
2015-Mar-29 04:26N 40°41' E 028°37'3 3.0
2015-Mar-29 03:32N 40°38' E 028°38'1 0.7
2015-Mar-29 02:33N 40°37' E 028°38'1 0.8
2015-Mar-29 01:33N 40°38' E 028°38'2 0.6
2015-Mar-28 21:15N 40°41' E 028°37'1 0.8
2015-Mar-28 20:09N 40°41' E 028°37'3 1.2
2015-Mar-28 17:31N 40°44' E 028°40'7 7.1
2015-Mar-28 16:32N 40°48' E 028°33'  
2015-Mar-23 21:14N 37°41' E 025°46'2313.6
2015-Mar-23 19:33N 37°18' E 025°48'27 8.9
2015-Mar-23 16:32N 36°58' E 026°11'35 8.3
2015-Mar-23 12:18N 36°34' E 026°42'14912.3
2015-Mar-23 00:10N 34°22' E 028°08'  
Track history (hours):
 
Tides and Currents Weather Stations Pressure Air Temp Water Temp Dewpoint Dewpoint Depression Visibility Wind Speed Wind Dir Waves Ship Positions

Bermuda Spirit

Last reported at 2015-Mar-30 12:33 UTC. Time now 2015-Mar-31 03:19 UTC.
Position N 41°34' E 029°35'.

Length 274 m; draft 9 m.

Type: Tanker. MMSI: 311020900.

Date/timePositionNaut miles runAvg speedWind from/ knotsBaromVisibWave heightAir tempDewpointWater temp
2015-Mar-30 12:33N 41°34' E 029°35'9 9.4
2015-Mar-30 11:33N 41°27' E 029°26'9 9.4
2015-Mar-30 10:34N 41°21' E 029°17'1610.5
2015-Mar-30 09:04N 41°09' E 029°03'1010.5
2015-Mar-30 08:09N 40°60' E 028°60'610.3
2015-Mar-30 07:33N 40°54' E 028°56'1312.6
2015-Mar-30 06:31N 40°47' E 028°42'7 6.6
2015-Mar-30 05:28N 40°40' E 028°41'0 0.4
2015-Mar-30 04:16N 40°40' E 028°41'2 0.4
2015-Mar-30 00:16N 40°42' E 028°40'1 0.5
2015-Mar-29 22:28N 40°42' E 028°39'0 0.2
2015-Mar-29 21:16N 40°43' E 028°39'0 0.2
2015-Mar-29 19:32N 40°43' E 028°39'6 6.4
2015-Mar-29 18:33N 40°37' E 028°40'1 0.4
2015-Mar-29 17:03N 40°37' E 028°40'2 1.0
2015-Mar-29 15:15N 40°39' E 028°41'1 0.9
2015-Mar-29 14:21N 40°40' E 028°41'1 0.7
2015-Mar-29 13:33N 40°40' E 028°41'1 0.8
2015-Mar-29 12:27N 40°41' E 028°41'2 1.2
2015-Mar-29 11:09N 40°43' E 028°41'3 4.8
2015-Mar-29 10:31N 40°41' E 028°37'3 1.5
2015-Mar-29 08:20N 40°39' E 028°35'1 0.9
2015-Mar-29 07:20N 40°39' E 028°35'1 0.8
2015-Mar-29 06:32N 40°40' E 028°36'1 0.7
2015-Mar-29 05:32N 40°40' E 028°36'0 0.3
2015-Mar-29 04:26N 40°41' E 028°37'3 3.0
2015-Mar-29 03:32N 40°38' E 028°38'1 0.7
2015-Mar-29 02:33N 40°37' E 028°38'1 0.8
2015-Mar-29 01:33N 40°38' E 028°38'2 0.6
2015-Mar-28 21:15N 40°41' E 028°37'1 0.8
2015-Mar-28 20:09N 40°41' E 028°37'3 1.2
2015-Mar-28 17:31N 40°44' E 028°40'7 7.1
2015-Mar-28 16:32N 40°48' E 028°33'  
2015-Mar-23 21:14N 37°41' E 025°46'2313.6
2015-Mar-23 19:33N 37°18' E 025°48'27 8.9
2015-Mar-23 16:32N 36°58' E 026°11'35 8.3
2015-Mar-23 12:18N 36°34' E 026°42'14912.3
2015-Mar-23 00:10N 34°22' E 028°08'  

Dump ship's entire track history